sensor_id;sensor_type;location;lat;lon;timestamp;temperature;humidity
2839;DHT22;1427;48.510;9.060;2023-08-24T00:00:48;20.80;99.90
2839;DHT22;1427;48.510;9.060;2023-08-24T00:03:16;21.00;99.90
2839;DHT22;1427;48.510;9.060;2023-08-24T00:05:44;20.90;99.90
2839;DHT22;1427;48.510;9.060;2023-08-24T00:08:12;20.60;99.90
2839;DHT22;1427;48.510;9.060;2023-08-24T00:10:43;20.30;99.90
2839;DHT22;1427;48.510;9.060;2023-08-24T00:13:13;20.30;99.90
2839;DHT22;1427;48.510;9.060;2023-08-24T00:15:42;20.30;99.90
2839;DHT22;1427;48.510;9.060;2023-08-24T00:18:10;20.20;99.90
2839;DHT22;1427;48.510;9.060;2023-08-24T00:20:38;20.40;99.90
2839;DHT22;1427;48.510;9.060;2023-08-24T00:23:07;20.50;99.90
2839;DHT22;1427;48.510;9.060;2023-08-24T00:25:35;20.60;99.90
2839;DHT22;1427;48.510;9.060;2023-08-24T00:28:05;20.40;99.90
2839;DHT22;1427;48.510;9.060;2023-08-24T00:30:33;20.50;99.90
2839;DHT22;1427;48.510;9.060;2023-08-24T00:33:01;20.60;99.90
2839;DHT22;1427;48.510;9.060;2023-08-24T00:35:29;20.60;99.90
2839;DHT22;1427;48.510;9.060;2023-08-24T00:37:57;20.60;99.90
2839;DHT22;1427;48.510;9.060;2023-08-24T00:40:26;20.60;99.90
2839;DHT22;1427;48.510;9.060;2023-08-24T00:42:54;20.60;99.90
2839;DHT22;1427;48.510;9.060;2023-08-24T00:45:24;20.60;99.90
2839;DHT22;1427;48.510;9.060;2023-08-24T00:47:52;20.50;99.90
2839;DHT22;1427;48.510;9.060;2023-08-24T00:50:21;20.20;99.90
2839;DHT22;1427;48.510;9.060;2023-08-24T00:52:49;20.20;99.90
2839;DHT22;1427;48.510;9.060;2023-08-24T00:55:17;20.30;99.90
2839;DHT22;1427;48.510;9.060;2023-08-24T00:57:45;20.30;99.90
2839;DHT22;1427;48.510;9.060;2023-08-24T01:00:14;20.40;99.90
2839;DHT22;1427;48.510;9.060;2023-08-24T01:02:44;20.50;99.90
2839;DHT22;1427;48.510;9.060;2023-08-24T01:05:12;20.50;99.90
2839;DHT22;1427;48.510;9.060;2023-08-24T01:07:40;20.40;99.90
2839;DHT22;1427;48.510;9.060;2023-08-24T01:10:10;20.40;99.90
2839;DHT22;1427;48.510;9.060;2023-08-24T01:12:50;20.40;99.90
2839;DHT22;1427;48.510;9.060;2023-08-24T01:15:23;20.30;99.90
2839;DHT22;1427;48.510;9.060;2023-08-24T01:18:04;20.30;99.90
2839;DHT22;1427;48.510;9.060;2023-08-24T01:20:34;20.10;99.90
2839;DHT22;1427;48.510;9.060;2023-08-24T01:23:09;20.10;99.90
2839;DHT22;1427;48.510;9.060;2023-08-24T01:25:48;20.00;99.90
2839;DHT22;1427;48.510;9.060;2023-08-24T01:28:18;19.70;99.90
2839;DHT22;1427;48.510;9.060;2023-08-24T01:30:48;19.50;99.90
2839;DHT22;1427;48.510;9.060;2023-08-24T01:33:16;19.50;99.90
2839;DHT22;1427;48.510;9.060;2023-08-24T01:35:44;19.60;99.90
2839;DHT22;1427;48.510;9.060;2023-08-24T01:38:12;19.70;99.90
2839;DHT22;1427;48.510;9.060;2023-08-24T01:40:48;19.80;99.90
2839;DHT22;1427;48.510;9.060;2023-08-24T01:43:20;20.00;99.90
2839;DHT22;1427;48.510;9.060;2023-08-24T01:46:07;20.00;99.90
2839;DHT22;1427;48.510;9.060;2023-08-24T01:48:36;20.00;99.90
2839;DHT22;1427;48.510;9.060;2023-08-24T01:51:05;20.10;99.90
2839;DHT22;1427;48.510;9.060;2023-08-24T01:53:35;20.00;99.90
2839;DHT22;1427;48.510;9.060;2023-08-24T01:56:08;19.90;99.90
2839;DHT22;1427;48.510;9.060;2023-08-24T01:58:38;19.80;99.90
2839;DHT22;1427;48.510;9.060;2023-08-24T02:01:07;19.70;99.90
2839;DHT22;1427;48.510;9.060;2023-08-24T02:03:37;19.60;99.90
2839;DHT22;1427;48.510;9.060;2023-08-24T02:06:06;19.50;99.90
2839;DHT22;1427;48.510;9.060;2023-08-24T02:08:35;19.40;99.90
2839;DHT22;1427;48.510;9.060;2023-08-24T02:11:03;19.40;99.90
2839;DHT22;1427;48.510;9.060;2023-08-24T02:13:31;19.40;99.90
2839;DHT22;1427;48.510;9.060;2023-08-24T02:16:04;19.30;99.90
2839;DHT22;1427;48.510;9.060;2023-08-24T02:18:33;19.30;99.90
2839;DHT22;1427;48.510;9.060;2023-08-24T02:21:07;19.20;99.90
2839;DHT22;1427;48.510;9.060;2023-08-24T02:23:35;19.30;99.90
2839;DHT22;1427;48.510;9.060;2023-08-24T02:26:03;19.40;99.90
2839;DHT22;1427;48.510;9.060;2023-08-24T02:28:32;19.20;99.90
2839;DHT22;1427;48.510;9.060;2023-08-24T02:31:01;19.10;99.90
2839;DHT22;1427;48.510;9.060;2023-08-24T02:33:31;19.20;99.90
2839;DHT22;1427;48.510;9.060;2023-08-24T02:35:59;19.30;99.90
2839;DHT22;1427;48.510;9.060;2023-08-24T02:38:28;19.30;99.90
2839;DHT22;1427;48.510;9.060;2023-08-24T02:41:03;19.30;99.90
2839;DHT22;1427;48.510;9.060;2023-08-24T02:43:31;19.40;99.90
2839;DHT22;1427;48.510;9.060;2023-08-24T02:46:00;19.40;99.90
2839;DHT22;1427;48.510;9.060;2023-08-24T02:48:32;19.40;99.90
2839;DHT22;1427;48.510;9.060;2023-08-24T02:51:02;19.50;99.90
2839;DHT22;1427;48.510;9.060;2023-08-24T02:53:30;19.50;99.90
2839;DHT22;1427;48.510;9.060;2023-08-24T02:55:58;19.70;99.90
2839;DHT22;1427;48.510;9.060;2023-08-24T02:58:27;19.70;99.90
2839;DHT22;1427;48.510;9.060;2023-08-24T03:00:56;19.50;99.90
2839;DHT22;1427;48.510;9.060;2023-08-24T03:03:24;19.50;99.90
2839;DHT22;1427;48.510;9.060;2023-08-24T03:05:58;19.40;99.90
2839;DHT22;1427;48.510;9.060;2023-08-24T03:08:27;19.40;99.90
2839;DHT22;1427;48.510;9.060;2023-08-24T03:10:55;19.40;99.90
2839;DHT22;1427;48.510;9.060;2023-08-24T03:13:23;19.50;99.90
2839;DHT22;1427;48.510;9.060;2023-08-24T03:15:51;19.40;99.90
2839;DHT22;1427;48.510;9.060;2023-08-24T03:18:20;19.30;99.90
2839;DHT22;1427;48.510;9.060;2023-08-24T03:20:49;19.10;99.90
2839;DHT22;1427;48.510;9.060;2023-08-24T03:23:19;19.00;99.90
2839;DHT22;1427;48.510;9.060;2023-08-24T03:25:47;18.90;99.90
2839;DHT22;1427;48.510;9.060;2023-08-24T03:28:15;18.90;99.90
2839;DHT22;1427;48.510;9.060;2023-08-24T03:30:47;18.90;99.90
2839;DHT22;1427;48.510;9.060;2023-08-24T03:33:16;19.00;99.90
2839;DHT22;1427;48.510;9.060;2023-08-24T03:35:44;19.10;99.90
2839;DHT22;1427;48.510;9.060;2023-08-24T03:38:13;19.10;99.90
2839;DHT22;1427;48.510;9.060;2023-08-24T03:40:43;19.10;99.90
2839;DHT22;1427;48.510;9.060;2023-08-24T03:43:11;19.10;99.90
2839;DHT22;1427;48.510;9.060;2023-08-24T03:45:39;19.20;99.90
2839;DHT22;1427;48.510;9.060;2023-08-24T03:48:07;19.20;99.90
2839;DHT22;1427;48.510;9.060;2023-08-24T03:50:35;19.00;99.90
2839;DHT22;1427;48.510;9.060;2023-08-24T03:53:03;18.80;99.90
2839;DHT22;1427;48.510;9.060;2023-08-24T03:55:32;18.70;99.90
2839;DHT22;1427;48.510;9.060;2023-08-24T03:58:02;18.70;99.90
2839;DHT22;1427;48.510;9.060;2023-08-24T04:00:31;18.80;99.90
2839;DHT22;1427;48.510;9.060;2023-08-24T04:02:59;18.80;99.90
2839;DHT22;1427;48.510;9.060;2023-08-24T04:05:27;18.90;99.90
2839;DHT22;1427;48.510;9.060;2023-08-24T04:07:56;19.00;99.90
2839;DHT22;1427;48.510;9.060;2023-08-24T04:10:24;19.00;99.90
2839;DHT22;1427;48.510;9.060;2023-08-24T04:12:52;19.10;99.90
2839;DHT22;1427;48.510;9.060;2023-08-24T04:15:21;19.20;99.90
2839;DHT22;1427;48.510;9.060;2023-08-24T04:17:49;19.10;99.90
2839;DHT22;1427;48.510;9.060;2023-08-24T04:20:17;19.00;99.90
2839;DHT22;1427;48.510;9.060;2023-08-24T04:22:45;19.00;99.90
2839;DHT22;1427;48.510;9.060;2023-08-24T04:25:14;19.00;99.90
2839;DHT22;1427;48.510;9.060;2023-08-24T04:27:42;19.00;99.90
2839;DHT22;1427;48.510;9.060;2023-08-24T04:30:10;19.10;99.90
2839;DHT22;1427;48.510;9.060;2023-08-24T04:32:42;19.10;99.90
2839;DHT22;1427;48.510;9.060;2023-08-24T04:35:10;19.10;99.90
2839;DHT22;1427;48.510;9.060;2023-08-24T04:37:38;19.10;99.90
2839;DHT22;1427;48.510;9.060;2023-08-24T04:40:07;19.10;99.90
2839;DHT22;1427;48.510;9.060;2023-08-24T04:42:35;19.20;99.90
2839;DHT22;1427;48.510;9.060;2023-08-24T04:45:03;19.20;99.90
2839;DHT22;1427;48.510;9.060;2023-08-24T04:47:32;19.20;99.90
2839;DHT22;1427;48.510;9.060;2023-08-24T04:50:01;19.20;99.90
2839;DHT22;1427;48.510;9.060;2023-08-24T04:52:29;18.90;99.90
2839;DHT22;1427;48.510;9.060;2023-08-24T04:54:57;18.70;99.90
2839;DHT22;1427;48.510;9.060;2023-08-24T04:57:25;18.70;99.90
2839;DHT22;1427;48.510;9.060;2023-08-24T04:59:53;18.40;99.90
2839;DHT22;1427;48.510;9.060;2023-08-24T05:02:21;18.40;99.90
2839;DHT22;1427;48.510;9.060;2023-08-24T05:04:50;18.30;99.90
2839;DHT22;1427;48.510;9.060;2023-08-24T05:07:19;18.40;99.90
2839;DHT22;1427;48.510;9.060;2023-08-24T05:09:47;18.50;99.90
2839;DHT22;1427;48.510;9.060;2023-08-24T05:12:15;18.60;99.90
2839;DHT22;1427;48.510;9.060;2023-08-24T05:14:43;18.70;99.90
2839;DHT22;1427;48.510;9.060;2023-08-24T05:17:11;18.60;99.90
2839;DHT22;1427;48.510;9.060;2023-08-24T05:19:39;18.60;99.90
2839;DHT22;1427;48.510;9.060;2023-08-24T05:22:07;18.50;99.90
2839;DHT22;1427;48.510;9.060;2023-08-24T05:24:37;18.60;99.90
2839;DHT22;1427;48.510;9.060;2023-08-24T05:27:05;18.70;99.90
2839;DHT22;1427;48.510;9.060;2023-08-24T05:29:33;18.80;99.90
2839;DHT22;1427;48.510;9.060;2023-08-24T05:32:01;19.00;99.90
2839;DHT22;1427;48.510;9.060;2023-08-24T05:34:30;19.20;99.90
2839;DHT22;1427;48.510;9.060;2023-08-24T05:36:58;19.40;99.90
2839;DHT22;1427;48.510;9.060;2023-08-24T05:39:26;19.60;99.90
2839;DHT22;1427;48.510;9.060;2023-08-24T05:41:56;19.40;99.90
2839;DHT22;1427;48.510;9.060;2023-08-24T05:44:24;19.70;99.90
2839;DHT22;1427;48.510;9.060;2023-08-24T05:46:52;19.60;99.90
2839;DHT22;1427;48.510;9.060;2023-08-24T05:49:20;19.70;99.90
2839;DHT22;1427;48.510;9.060;2023-08-24T05:51:50;19.60;99.90
2839;DHT22;1427;48.510;9.060;2023-08-24T05:54:19;19.60;99.90
2839;DHT22;1427;48.510;9.060;2023-08-24T05:56:47;19.60;99.90
2839;DHT22;1427;48.510;9.060;2023-08-24T05:59:17;19.70;99.90
2839;DHT22;1427;48.510;9.060;2023-08-24T06:01:45;19.80;99.90
2839;DHT22;1427;48.510;9.060;2023-08-24T06:04:13;19.80;99.90
2839;DHT22;1427;48.510;9.060;2023-08-24T06:06:41;19.90;99.90
2839;DHT22;1427;48.510;9.060;2023-08-24T06:09:09;19.90;99.90
2839;DHT22;1427;48.510;9.060;2023-08-24T06:11:37;19.90;99.90
2839;DHT22;1427;48.510;9.060;2023-08-24T06:14:07;19.80;99.90
2839;DHT22;1427;48.510;9.060;2023-08-24T06:16:36;19.80;99.90
2839;DHT22;1427;48.510;9.060;2023-08-24T06:19:05;19.80;99.90
2839;DHT22;1427;48.510;9.060;2023-08-24T06:21:33;19.80;99.90
2839;DHT22;1427;48.510;9.060;2023-08-24T06:24:01;19.80;99.90
2839;DHT22;1427;48.510;9.060;2023-08-24T06:26:30;19.80;99.90
2839;DHT22;1427;48.510;9.060;2023-08-24T06:28:58;19.70;99.90
2839;DHT22;1427;48.510;9.060;2023-08-24T06:31:26;19.80;99.90
2839;DHT22;1427;48.510;9.060;2023-08-24T06:33:56;19.80;99.90
2839;DHT22;1427;48.510;9.060;2023-08-24T06:36:24;19.90;99.90
2839;DHT22;1427;48.510;9.060;2023-08-24T06:38:52;19.90;99.90
2839;DHT22;1427;48.510;9.060;2023-08-24T06:41:21;19.80;99.90
2839;DHT22;1427;48.510;9.060;2023-08-24T06:43:49;19.90;99.90
2839;DHT22;1427;48.510;9.060;2023-08-24T06:46:17;19.90;99.90
2839;DHT22;1427;48.510;9.060;2023-08-24T06:48:46;20.00;99.90
2839;DHT22;1427;48.510;9.060;2023-08-24T06:51:15;20.20;99.90
2839;DHT22;1427;48.510;9.060;2023-08-24T06:53:43;20.30;99.90
2839;DHT22;1427;48.510;9.060;2023-08-24T06:56:13;20.10;99.90
2839;DHT22;1427;48.510;9.060;2023-08-24T06:58:42;20.20;99.90
2839;DHT22;1427;48.510;9.060;2023-08-24T07:01:10;20.20;99.90
2839;DHT22;1427;48.510;9.060;2023-08-24T07:03:38;20.20;99.90
2839;DHT22;1427;48.510;9.060;2023-08-24T07:06:07;20.30;99.90
2839;DHT22;1427;48.510;9.060;2023-08-24T07:08:36;20.20;99.90
2839;DHT22;1427;48.510;9.060;2023-08-24T07:11:04;20.30;99.90
2839;DHT22;1427;48.510;9.060;2023-08-24T07:13:32;20.30;99.90
2839;DHT22;1427;48.510;9.060;2023-08-24T07:16:01;20.40;99.90
2839;DHT22;1427;48.510;9.060;2023-08-24T07:18:30;20.50;99.90
2839;DHT22;1427;48.510;9.060;2023-08-24T07:20:59;20.60;99.90
2839;DHT22;1427;48.510;9.060;2023-08-24T07:23:27;20.70;99.90
2839;DHT22;1427;48.510;9.060;2023-08-24T07:25:56;20.70;99.90
2839;DHT22;1427;48.510;9.060;2023-08-24T07:28:24;20.70;99.90
2839;DHT22;1427;48.510;9.060;2023-08-24T07:30:52;20.90;99.90
2839;DHT22;1427;48.510;9.060;2023-08-24T07:33:23;20.90;99.90
2839;DHT22;1427;48.510;9.060;2023-08-24T07:35:51;20.90;99.90
2839;DHT22;1427;48.510;9.060;2023-08-24T07:38:19;21.10;99.90
2839;DHT22;1427;48.510;9.060;2023-08-24T07:40:48;21.20;99.90
2839;DHT22;1427;48.510;9.060;2023-08-24T07:43:17;21.30;99.90
2839;DHT22;1427;48.510;9.060;2023-08-24T07:45:45;21.50;99.90
2839;DHT22;1427;48.510;9.060;2023-08-24T07:48:14;21.40;99.90
2839;DHT22;1427;48.510;9.060;2023-08-24T07:50:42;21.50;99.90
2839;DHT22;1427;48.510;9.060;2023-08-24T07:53:10;21.50;99.90
2839;DHT22;1427;48.510;9.060;2023-08-24T07:55:38;21.90;99.90
2839;DHT22;1427;48.510;9.060;2023-08-24T07:58:07;22.20;99.90
2839;DHT22;1427;48.510;9.060;2023-08-24T08:00:36;22.40;99.90
2839;DHT22;1427;48.510;9.060;2023-08-24T08:03:05;22.60;99.90
2839;DHT22;1427;48.510;9.060;2023-08-24T08:05:33;22.80;99.90
2839;DHT22;1427;48.510;9.060;2023-08-24T08:08:01;23.20;99.90
2839;DHT22;1427;48.510;9.060;2023-08-24T08:10:29;23.50;99.90
2839;DHT22;1427;48.510;9.060;2023-08-24T08:12:57;23.80;99.90
2839;DHT22;1427;48.510;9.060;2023-08-24T08:15:25;24.00;99.90
2839;DHT22;1427;48.510;9.060;2023-08-24T08:17:54;24.00;99.90
2839;DHT22;1427;48.510;9.060;2023-08-24T08:20:23;24.30;99.90
2839;DHT22;1427;48.510;9.060;2023-08-24T08:22:51;24.60;99.90
2839;DHT22;1427;48.510;9.060;2023-08-24T08:25:19;24.80;99.90
2839;DHT22;1427;48.510;9.060;2023-08-24T08:27:49;24.90;99.90
2839;DHT22;1427;48.510;9.060;2023-08-24T08:30:18;25.10;99.90
2839;DHT22;1427;48.510;9.060;2023-08-24T08:32:47;25.20;99.90
2839;DHT22;1427;48.510;9.060;2023-08-24T08:35:19;25.40;99.90
2839;DHT22;1427;48.510;9.060;2023-08-24T08:37:47;25.60;99.90
2839;DHT22;1427;48.510;9.060;2023-08-24T08:40:17;25.90;99.90
2839;DHT22;1427;48.510;9.060;2023-08-24T08:42:45;26.10;99.90
2839;DHT22;1427;48.510;9.060;2023-08-24T08:45:14;26.40;99.90
2839;DHT22;1427;48.510;9.060;2023-08-24T08:47:43;26.60;99.90
2839;DHT22;1427;48.510;9.060;2023-08-24T08:50:11;26.70;99.90
2839;DHT22;1427;48.510;9.060;2023-08-24T08:52:40;26.80;99.90
2839;DHT22;1427;48.510;9.060;2023-08-24T08:55:08;26.60;99.90
2839;DHT22;1427;48.510;9.060;2023-08-24T08:57:38;26.60;99.90
2839;DHT22;1427;48.510;9.060;2023-08-24T09:00:10;27.00;99.90
2839;DHT22;1427;48.510;9.060;2023-08-24T09:02:42;27.30;99.90
2839;DHT22;1427;48.510;9.060;2023-08-24T09:05:12;27.50;99.90
2839;DHT22;1427;48.510;9.060;2023-08-24T09:07:42;27.90;99.90
2839;DHT22;1427;48.510;9.060;2023-08-24T09:10:10;28.10;99.90
2839;DHT22;1427;48.510;9.060;2023-08-24T09:12:39;28.30;99.90
2839;DHT22;1427;48.510;9.060;2023-08-24T09:15:08;28.50;99.90
2839;DHT22;1427;48.510;9.060;2023-08-24T09:17:36;28.80;99.90
2839;DHT22;1427;48.510;9.060;2023-08-24T09:20:10;28.90;99.90
2839;DHT22;1427;48.510;9.060;2023-08-24T09:22:38;29.00;99.90
2839;DHT22;1427;48.510;9.060;2023-08-24T09:25:10;29.10;99.90
2839;DHT22;1427;48.510;9.060;2023-08-24T09:27:38;29.50;99.90
2839;DHT22;1427;48.510;9.060;2023-08-24T09:30:09;29.70;99.90
2839;DHT22;1427;48.510;9.060;2023-08-24T09:32:38;29.80;99.90
2839;DHT22;1427;48.510;9.060;2023-08-24T09:35:09;30.00;99.90
2839;DHT22;1427;48.510;9.060;2023-08-24T09:37:37;30.10;99.90
2839;DHT22;1427;48.510;9.060;2023-08-24T09:40:07;30.20;99.90
2839;DHT22;1427;48.510;9.060;2023-08-24T09:42:41;29.80;99.90
2839;DHT22;1427;48.510;9.060;2023-08-24T09:45:12;29.60;99.90
2839;DHT22;1427;48.510;9.060;2023-08-24T09:47:45;29.90;99.90
2839;DHT22;1427;48.510;9.060;2023-08-24T09:50:13;30.30;99.90
2839;DHT22;1427;48.510;9.060;2023-08-24T09:52:42;30.60;99.90
2839;DHT22;1427;48.510;9.060;2023-08-24T09:55:12;30.80;99.90
2839;DHT22;1427;48.510;9.060;2023-08-24T09:57:45;31.00;99.90
2839;DHT22;1427;48.510;9.060;2023-08-24T10:00:14;31.30;99.90
2839;DHT22;1427;48.510;9.060;2023-08-24T10:02:49;31.40;99.90
2839;DHT22;1427;48.510;9.060;2023-08-24T10:05:20;31.70;99.90
2839;DHT22;1427;48.510;9.060;2023-08-24T10:07:53;31.80;99.90
2839;DHT22;1427;48.510;9.060;2023-08-24T10:10:25;31.90;99.80
2839;DHT22;1427;48.510;9.060;2023-08-24T10:12:59;32.10;99.90
2839;DHT22;1427;48.510;9.060;2023-08-24T10:15:28;32.00;98.40
2839;DHT22;1427;48.510;9.060;2023-08-24T10:17:57;32.20;99.70
2839;DHT22;1427;48.510;9.060;2023-08-24T10:20:27;32.40;99.70
2839;DHT22;1427;48.510;9.060;2023-08-24T10:22:57;32.60;97.80
2839;DHT22;1427;48.510;9.060;2023-08-24T10:25:31;32.80;98.70
2839;DHT22;1427;48.510;9.060;2023-08-24T10:28:02;33.10;98.80
2839;DHT22;1427;48.510;9.060;2023-08-24T10:30:31;33.20;98.30
2839;DHT22;1427;48.510;9.060;2023-08-24T10:33:00;33.20;96.60
2839;DHT22;1427;48.510;9.060;2023-08-24T10:35:29;32.80;97.60
2839;DHT22;1427;48.510;9.060;2023-08-24T10:37:59;32.80;98.40
2839;DHT22;1427;48.510;9.060;2023-08-24T10:40:33;32.90;97.30
2839;DHT22;1427;48.510;9.060;2023-08-24T10:43:06;32.80;98.60
2839;DHT22;1427;48.510;9.060;2023-08-24T10:45:58;32.70;98.20
2839;DHT22;1427;48.510;9.060;2023-08-24T10:48:28;32.80;97.00
2839;DHT22;1427;48.510;9.060;2023-08-24T10:51:18;33.00;98.60
2839;DHT22;1427;48.510;9.060;2023-08-24T10:53:50;33.40;98.50
2839;DHT22;1427;48.510;9.060;2023-08-24T10:56:19;33.10;96.90
2839;DHT22;1427;48.510;9.060;2023-08-24T10:59:11;32.90;97.20
2839;DHT22;1427;48.510;9.060;2023-08-24T11:01:41;32.70;97.80
2839;DHT22;1427;48.510;9.060;2023-08-24T11:04:11;32.70;97.50
2839;DHT22;1427;48.510;9.060;2023-08-24T11:06:52;32.70;97.90
2839;DHT22;1427;48.510;9.060;2023-08-24T11:09:21;33.00;98.20
2839;DHT22;1427;48.510;9.060;2023-08-24T11:11:56;33.00;96.70
2839;DHT22;1427;48.510;9.060;2023-08-24T11:14:26;33.00;97.30
2839;DHT22;1427;48.510;9.060;2023-08-24T11:16:58;33.20;98.10
2839;DHT22;1427;48.510;9.060;2023-08-24T11:19:27;33.50;98.10
2839;DHT22;1427;48.510;9.060;2023-08-24T11:21:57;33.90;97.90
2839;DHT22;1427;48.510;9.060;2023-08-24T11:24:26;33.90;97.60
2839;DHT22;1427;48.510;9.060;2023-08-24T11:26:55;33.80;96.90
2839;DHT22;1427;48.510;9.060;2023-08-24T11:29:28;33.90;97.10
2839;DHT22;1427;48.510;9.060;2023-08-24T11:31:57;33.90;97.50
2839;DHT22;1427;48.510;9.060;2023-08-24T11:34:26;34.00;97.30
2839;DHT22;1427;48.510;9.060;2023-08-24T11:36:54;34.20;98.00
2839;DHT22;1427;48.510;9.060;2023-08-24T11:39:23;34.40;97.70
2839;DHT22;1427;48.510;9.060;2023-08-24T11:41:59;34.60;97.40
2839;DHT22;1427;48.510;9.060;2023-08-24T11:44:44;34.70;96.10
2839;DHT22;1427;48.510;9.060;2023-08-24T11:47:13;34.70;96.70
2839;DHT22;1427;48.510;9.060;2023-08-24T11:49:42;34.80;96.60
2839;DHT22;1427;48.510;9.060;2023-08-24T11:52:10;35.10;97.10
2839;DHT22;1427;48.510;9.060;2023-08-24T11:54:38;34.90;95.10
2839;DHT22;1427;48.510;9.060;2023-08-24T11:57:07;34.80;95.70
2839;DHT22;1427;48.510;9.060;2023-08-24T11:59:37;34.50;94.60
2839;DHT22;1427;48.510;9.060;2023-08-24T12:02:08;34.10;94.90
2839;DHT22;1427;48.510;9.060;2023-08-24T12:04:40;34.10;95.90
2839;DHT22;1427;48.510;9.060;2023-08-24T12:07:10;34.30;96.40
2839;DHT22;1427;48.510;9.060;2023-08-24T12:09:38;34.40;96.30
2839;DHT22;1427;48.510;9.060;2023-08-24T12:12:12;34.80;96.50
2839;DHT22;1427;48.510;9.060;2023-08-24T12:14:41;35.10;95.60
2839;DHT22;1427;48.510;9.060;2023-08-24T12:17:10;35.40;96.40
2839;DHT22;1427;48.510;9.060;2023-08-24T12:19:41;35.10;93.80
2839;DHT22;1427;48.510;9.060;2023-08-24T12:22:13;35.10;94.70
2839;DHT22;1427;48.510;9.060;2023-08-24T12:24:44;35.40;95.80
2839;DHT22;1427;48.510;9.060;2023-08-24T12:27:17;35.50;94.70
2839;DHT22;1427;48.510;9.060;2023-08-24T12:29:47;35.60;94.70
2839;DHT22;1427;48.510;9.060;2023-08-24T12:32:16;35.80;95.00
2839;DHT22;1427;48.510;9.060;2023-08-24T12:34:47;35.90;94.80
2839;DHT22;1427;48.510;9.060;2023-08-24T12:37:16;36.10;95.20
2839;DHT22;1427;48.510;9.060;2023-08-24T12:39:44;36.10;94.10
2839;DHT22;1427;48.510;9.060;2023-08-24T12:42:13;36.00;93.40
2839;DHT22;1427;48.510;9.060;2023-08-24T12:44:41;36.00;92.90
2839;DHT22;1427;48.510;9.060;2023-08-24T12:47:11;35.50;92.40
2839;DHT22;1427;48.510;9.060;2023-08-24T12:49:39;35.40;92.70
2839;DHT22;1427;48.510;9.060;2023-08-24T12:52:07;35.10;92.90
2839;DHT22;1427;48.510;9.060;2023-08-24T12:54:35;35.00;92.50
2839;DHT22;1427;48.510;9.060;2023-08-24T12:57:03;35.10;93.10
2839;DHT22;1427;48.510;9.060;2023-08-24T12:59:31;35.10;92.70
2839;DHT22;1427;48.510;9.060;2023-08-24T13:01:59;35.10;92.30
2839;DHT22;1427;48.510;9.060;2023-08-24T13:04:29;35.30;92.60
2839;DHT22;1427;48.510;9.060;2023-08-24T13:07:00;35.40;92.20
2839;DHT22;1427;48.510;9.060;2023-08-24T13:09:28;35.50;91.60
2839;DHT22;1427;48.510;9.060;2023-08-24T13:11:56;35.40;92.20
2839;DHT22;1427;48.510;9.060;2023-08-24T13:14:24;35.40;92.30
2839;DHT22;1427;48.510;9.060;2023-08-24T13:16:52;35.30;91.00
2839;DHT22;1427;48.510;9.060;2023-08-24T13:19:20;35.00;91.20
2839;DHT22;1427;48.510;9.060;2023-08-24T13:21:50;34.90;91.40
2839;DHT22;1427;48.510;9.060;2023-08-24T13:24:18;34.70;91.90
2839;DHT22;1427;48.510;9.060;2023-08-24T13:26:47;34.60;91.70
2839;DHT22;1427;48.510;9.060;2023-08-24T13:29:15;34.40;91.60
2839;DHT22;1427;48.510;9.060;2023-08-24T13:31:43;34.10;91.40
2839;DHT22;1427;48.510;9.060;2023-08-24T13:34:12;34.00;92.00
2839;DHT22;1427;48.510;9.060;2023-08-24T13:36:40;33.90;92.10
2839;DHT22;1427;48.510;9.060;2023-08-24T13:39:09;34.10;92.00
2839;DHT22;1427;48.510;9.060;2023-08-24T13:41:38;34.10;92.60
2839;DHT22;1427;48.510;9.060;2023-08-24T13:44:06;34.20;92.80
2839;DHT22;1427;48.510;9.060;2023-08-24T13:46:34;34.50;92.50
2839;DHT22;1427;48.510;9.060;2023-08-24T13:49:02;34.60;91.90
2839;DHT22;1427;48.510;9.060;2023-08-24T13:51:31;34.60;91.70
2839;DHT22;1427;48.510;9.060;2023-08-24T13:53:59;34.50;91.70
2839;DHT22;1427;48.510;9.060;2023-08-24T13:56:28;34.30;91.80
2839;DHT22;1427;48.510;9.060;2023-08-24T13:58:56;34.30;92.30
2839;DHT22;1427;48.510;9.060;2023-08-24T14:01:24;34.30;92.10
2839;DHT22;1427;48.510;9.060;2023-08-24T14:03:53;34.40;92.40
2839;DHT22;1427;48.510;9.060;2023-08-24T14:06:21;34.60;92.20
2839;DHT22;1427;48.510;9.060;2023-08-24T14:08:49;34.70;91.90
2839;DHT22;1427;48.510;9.060;2023-08-24T14:11:17;34.70;91.90
2839;DHT22;1427;48.510;9.060;2023-08-24T14:13:46;34.60;90.60
2839;DHT22;1427;48.510;9.060;2023-08-24T14:16:15;34.60;90.70
2839;DHT22;1427;48.510;9.060;2023-08-24T14:18:43;34.70;87.60
2839;DHT22;1427;48.510;9.060;2023-08-24T14:21:12;34.80;90.10
2839;DHT22;1427;48.510;9.060;2023-08-24T14:23:48;34.80;89.70
2839;DHT22;1427;48.510;9.060;2023-08-24T14:26:16;34.80;90.10
2839;DHT22;1427;48.510;9.060;2023-08-24T14:28:50;34.80;89.10
2839;DHT22;1427;48.510;9.060;2023-08-24T14:31:20;34.80;88.80
2839;DHT22;1427;48.510;9.060;2023-08-24T14:33:48;34.70;89.50
2839;DHT22;1427;48.510;9.060;2023-08-24T14:36:17;34.60;89.50
2839;DHT22;1427;48.510;9.060;2023-08-24T14:38:46;34.50;90.00
2839;DHT22;1427;48.510;9.060;2023-08-24T14:41:14;34.40;90.40
2839;DHT22;1427;48.510;9.060;2023-08-24T14:43:43;34.40;90.90
2839;DHT22;1427;48.510;9.060;2023-08-24T14:46:13;34.40;90.70
2839;DHT22;1427;48.510;9.060;2023-08-24T14:48:41;34.30;90.50
2839;DHT22;1427;48.510;9.060;2023-08-24T14:51:09;34.30;91.00
2839;DHT22;1427;48.510;9.060;2023-08-24T14:53:38;34.40;91.50
2839;DHT22;1427;48.510;9.060;2023-08-24T14:56:06;34.40;92.20
2839;DHT22;1427;48.510;9.060;2023-08-24T14:58:34;34.30;92.90
2839;DHT22;1427;48.510;9.060;2023-08-24T15:01:03;34.20;92.80
2839;DHT22;1427;48.510;9.060;2023-08-24T15:03:33;34.10;92.30
2839;DHT22;1427;48.510;9.060;2023-08-24T15:06:03;34.00;92.70
2839;DHT22;1427;48.510;9.060;2023-08-24T15:08:32;33.90;92.60
2839;DHT22;1427;48.510;9.060;2023-08-24T15:11:01;33.80;92.80
2839;DHT22;1427;48.510;9.060;2023-08-24T15:13:33;33.70;93.10
2839;DHT22;1427;48.510;9.060;2023-08-24T15:16:01;33.60;93.40
2839;DHT22;1427;48.510;9.060;2023-08-24T15:18:29;33.70;93.40
2839;DHT22;1427;48.510;9.060;2023-08-24T15:20:59;33.50;93.90
2839;DHT22;1427;48.510;9.060;2023-08-24T15:23:28;33.30;94.60
2839;DHT22;1427;48.510;9.060;2023-08-24T15:25:59;33.00;95.80
2839;DHT22;1427;48.510;9.060;2023-08-24T15:28:36;32.60;96.80
2839;DHT22;1427;48.510;9.060;2023-08-24T15:31:04;32.40;97.40
2839;DHT22;1427;48.510;9.060;2023-08-24T15:33:32;32.30;97.90
2839;DHT22;1427;48.510;9.060;2023-08-24T15:36:02;32.10;98.10
2839;DHT22;1427;48.510;9.060;2023-08-24T15:38:30;31.70;98.40
2839;DHT22;1427;48.510;9.060;2023-08-24T15:40:59;31.60;98.80
2839;DHT22;1427;48.510;9.060;2023-08-24T15:43:29;31.40;99.10
2839;DHT22;1427;48.510;9.060;2023-08-24T15:45:59;31.00;98.70
2839;DHT22;1427;48.510;9.060;2023-08-24T15:48:27;30.70;98.90
2839;DHT22;1427;48.510;9.060;2023-08-24T15:50:56;30.40;99.30
2839;DHT22;1427;48.510;9.060;2023-08-24T15:53:26;30.10;99.60
2839;DHT22;1427;48.510;9.060;2023-08-24T15:55:56;30.10;99.80
2839;DHT22;1427;48.510;9.060;2023-08-24T15:58:24;30.20;99.70
2839;DHT22;1427;48.510;9.060;2023-08-24T16:00:58;30.20;99.40
2839;DHT22;1427;48.510;9.060;2023-08-24T16:03:27;30.30;99.50
2839;DHT22;1427;48.510;9.060;2023-08-24T16:05:56;30.10;99.50
2839;DHT22;1427;48.510;9.060;2023-08-24T16:08:26;29.90;99.90
2839;DHT22;1427;48.510;9.060;2023-08-24T16:10:56;29.90;99.90
2839;DHT22;1427;48.510;9.060;2023-08-24T16:13:24;29.90;99.90
2839;DHT22;1427;48.510;9.060;2023-08-24T16:15:52;30.00;99.90